x

Destruction Island, Wa (desw1) Weather Station

1:00 - Sun 29th Mar 2015 All times are PDT. -7 hours from GMT.

  • Wind
    26mph, 32mph gusts
  • Luft Temp 52°f
  • Sea Pressure 1022.4mb
  • Destruction Island, Wa
  • Destruction Island, Wa

More Historic Weather Station data

Upgrade to MSW Pro to gain access to the past 30 days of data for over 8000 Wavebouys and Weather Stations around the globe.

Join Pro

Comparision Forecast

View Surf forecast
   
So 03/29 1:00 26 32 mph 1022.4mb 52f
12:00 24 28 mph 1022.6mb 51f
11:00 30 31 mph 1022.6mb 50f
10:00 33 36 mph 1022.4mb 50f
9:00 29 32 mph 1022.4mb 49f
8:00 30 32 mph 1022.6mb 49f
7:00 30 33 mph 1022.8mb 49f
6:00 29 32 mph 1023mb 49f
5:00 29 33 mph 1023.1mb 49f
4:00 29 31 mph 1023.6mb 49f
3:00 26 29 mph 1024.1mb 50f
2:00 25 28 mph 1024.6mb 50f
1:00 25 28 mph 1025.3mb 50f
12:00 24 25 mph 1025.8mb 50f
Sa 03/28 11:00 24 28 mph 1025.9mb 51f
10:00 23 24 mph 1026.3mb 51f
9:00 23 24 mph 1026.1mb 51f
8:00 24 28 mph 1026.1mb 52f
7:00 21 24 mph 1026.3mb 52f
6:00 23 29 mph 1026.6mb 52f
5:00 24 28 mph 1027.1mb 52f
4:00 24 25 mph 1027.1mb 53f
3:00 23 25 mph 1027.3mb 52f
2:00 16 21 mph 1027.6mb 52f
1:00 15 17 mph 1027.5mb 51f
12:00 20 22 mph 1026.3mb 50f
11:00 14 15 mph 1026.7mb 52f
10:00 8 9 mph 1026.2mb 52f
9:00 14 15 mph 1025.7mb 52f
8:00 16 17 mph 1025mb 51f
7:00 21 23 mph 1023.6mb 51f
6:00 18 21 mph 1022.6mb 51f
5:00 20 22 mph 1022mb 51f
4:00 25 29 mph 1021.1mb 51f
3:00 21 23 mph 1020.4mb 50f
2:00 24 28 mph 1019.7mb 50f
1:00 29 32 mph 1018.9mb 50f
12:00 23 28 mph 1018.4mb 51f
Fr 03/27 11:00 24 25 mph 1017.7mb 51f
10:00 25 26 mph 1016.8mb 51f
9:00 20 21 mph 1015.6mb 52f
8:00 17 20 mph 1015mb 52f
7:00 24 26 mph 1014.3mb 51f
6:00 23 28 mph 1014.3mb 52f
5:00 23 29 mph 1014.8mb 52f
4:00 28 30 mph 1015.3mb 52f
3:00 28 31 mph 1015.7mb 52f
2:00 25 29 mph 1016.5mb 52f
1:00 22 26 mph 1016.7mb 52f
12:00 20 22 mph 1016.7mb 53f
11:00 17 20 mph 1017.1mb 52f
10:00 13 14 mph 1017mb 52f
9:00 5 6 mph 1017mb 51f
8:00 1
mph
1016.5mb 51f
7:00 6 7 mph 1016.3mb 50f
6:00 5 6 mph 1016.5mb 50f
5:00 2 3 mph 1017.2mb 49f
4:00 3
mph
1017.8mb 51f
3:00 7 8 mph 1018.2mb 51f
2:00 9 10 mph 1018.7mb 51f
1:00 8
mph
1019.5mb 52f
12:00 6 7 mph 1020.3mb 52f
Do 03/26 11:00 6
mph
1021.1mb 52f
10:00 7
mph
1021.4mb 52f
9:00 5
mph
1021.4mb 53f
8:00 5
mph
1021.5mb 53f
7:00 1 2 mph 1021.8mb 54f
6:00 2 3 mph 1022.4mb 56f
5:00 5 6 mph 1022.9mb 56f
4:00 7 8 mph 1023.2mb 56f
3:00 13 14 mph 1023.5mb 56f
2:00 13 14 mph 1024.2mb 56f
1:00 13
mph
1024.4mb 55f
12:00 14 15 mph 1024.5mb 54f
11:00 14 15 mph 1025.1mb 53f
10:00 13 14 mph 1025.4mb 53f
9:00 14
mph
1024.9mb 52f
8:00 13 14 mph 1025.2mb 52f
7:00 13 14 mph 1024.8mb 52f
6:00 18 22 mph 1025mb 52f
5:00 22 24 mph 1024.9mb 52f
4:00 15 17 mph 1025.2mb 52f
3:00 16 18 mph 1025.8mb 53f
2:00 18 21 mph 1025.8mb 52f
1:00 20 23 mph 1025.7mb 53f
12:00 22 24 mph 1025.7mb 53f
Mi 03/25 11:00 22 25 mph 1025.6mb 53f
10:00 22 24 mph 1025.4mb 53f